Time;durP1;ratioP1;P1;durP2;ratioP2;P2;SDS_P1;SDS_P2;PMS_P1;PMS_P2;Temp;Humidity;BMP_temperature;BMP_pressure;BME280_temperature;BME280_humidity;BME280_pressure;Samples;Min_cycle;Max_cycle;Signal;HPM_P1;HPM_P2
2023/04/15 00:01:00;;;;;;;3.40;1.98;;;;;;;18.40;43.04;100972.03;5062982;28;20449;-35
2023/04/15 00:03:27;;;;;;;3.33;1.77;;;;;;;18.40;42.95;100981.91;5061166;28;20040;-36
2023/04/15 00:05:54;;;;;;;3.25;1.65;;;;;;;18.38;42.16;100979.41;5060978;28;20049;-36
2023/04/15 00:08:20;;;;;;;4.13;2.00;;;;;;;18.38;43.16;100976.72;5065228;28;20047;-36
2023/04/15 00:10:48;;;;;;;3.78;1.50;;;;;;;18.38;42.49;100978.56;5068737;28;20048;-36
2023/04/15 00:13:15;;;;;;;3.70;1.45;;;;;;;18.36;42.88;100976.00;5063118;28;20104;-35
2023/04/15 00:15:42;;;;;;;3.00;1.52;;;;;;;18.34;42.26;100980.69;5056728;28;20056;-35
2023/04/15 00:18:09;;;;;;;3.35;1.70;;;;;;;18.34;42.92;100972.66;5066441;28;20048;-35
2023/04/15 00:20:35;;;;;;;3.42;1.75;;;;;;;18.34;42.82;100974.50;5058654;28;20053;-37
2023/04/15 00:23:02;;;;;;;2.13;1.40;;;;;;;18.33;42.82;100970.09;5069631;28;20425;-36
2023/04/15 00:25:29;;;;;;;4.55;1.60;;;;;;;18.33;42.83;100972.78;5063904;28;20060;-35
2023/04/15 00:27:56;;;;;;;3.30;1.55;;;;;;;18.32;42.23;100973.78;5068319;28;20344;-35
2023/04/15 00:30:23;;;;;;;4.70;1.80;;;;;;;18.32;42.59;100968.41;5063248;28;20056;-36
2023/04/15 00:32:52;;;;;;;2.67;1.88;;;;;;;18.31;42.35;100974.78;5066464;28;20079;-35
2023/04/15 00:35:19;;;;;;;3.67;1.77;;;;;;;18.31;42.53;100972.94;5069785;28;20055;-36
2023/04/15 00:37:46;;;;;;;2.45;1.77;;;;;;;18.30;42.66;100971.25;5063502;28;20140;-35
2023/04/15 00:40:16;;;;;;;4.50;1.75;;;;;;;18.30;42.52;100970.44;5065463;28;20049;-35
2023/04/15 00:42:44;;;;;;;2.33;1.50;;;;;;;18.29;42.55;100969.59;5064283;28;20099;-34
2023/04/15 00:45:11;;;;;;;3.13;1.70;;;;;;;18.27;42.57;100973.41;5062003;28;20091;-35
2023/04/15 00:47:41;;;;;;;3.97;1.90;;;;;;;18.27;42.44;100976.09;5066473;28;20063;-35
2023/04/15 00:50:08;;;;;;;3.10;1.50;;;;;;;18.27;42.69;100979.59;5064786;28;20102;-35
2023/04/15 00:52:35;;;;;;;2.92;1.38;;;;;;;18.26;42.78;100975.25;5065425;28;20177;-36
2023/04/15 00:55:03;;;;;;;2.88;1.67;;;;;;;18.24;42.68;100980.75;5065570;28;20694;-35
2023/04/15 00:57:30;;;;;;;4.20;1.63;;;;;;;18.25;43.13;100982.47;5062789;28;20397;-34
2023/04/15 00:59:57;;;;;;;3.83;2.00;;;;;;;18.23;42.39;100984.44;5058792;28;20089;-35
2023/04/15 01:02:23;;;;;;;3.00;1.40;;;;;;;18.23;42.77;100983.59;5063703;28;20048;-35
2023/04/15 01:04:50;;;;;;;4.90;1.80;;;;;;;18.23;42.81;100984.44;5062072;28;20055;-35
2023/04/15 01:07:17;;;;;;;3.08;1.60;;;;;;;18.21;42.85;100978.41;5063154;28;20135;-35
2023/04/15 01:09:44;;;;;;;2.28;1.38;;;;;;;18.21;42.72;100986.44;5064224;28;20055;-35
2023/04/15 01:12:13;;;;;;;2.97;1.80;;;;;;;18.20;42.58;100984.72;5061656;28;20135;-36
2023/04/15 01:14:40;;;;;;;2.63;1.70;;;;;;;18.19;42.66;100985.72;5061808;28;20052;-35
2023/04/15 01:17:06;;;;;;;2.67;1.52;;;;;;;18.17;42.53;100985.06;5061652;28;20508;-35
2023/04/15 01:19:33;;;;;;;2.05;1.60;;;;;;;18.17;42.63;100978.81;5060812;28;20052;-35
2023/04/15 01:22:01;;;;;;;2.67;1.50;;;;;;;18.16;42.77;100974.47;5065601;28;20049;-36
2023/04/15 01:24:30;;;;;;;3.92;2.08;;;;;;;18.15;42.71;100972.78;5064312;28;20040;-35
2023/04/15 01:26:57;;;;;;;4.47;1.88;;;;;;;18.14;43.10;100976.47;5062537;28;20050;-35
2023/04/15 01:29:24;;;;;;;2.80;1.70;;;;;;;18.13;42.78;100975.63;5062714;28;20079;-35
2023/04/15 01:31:51;;;;;;;3.75;1.88;;;;;;;18.11;42.59;100974.91;5064969;28;20143;-35
2023/04/15 01:34:18;;;;;;;2.28;1.50;;;;;;;18.11;42.94;100980.28;5063352;28;20344;-37
2023/04/15 01:36:45;;;;;;;2.75;1.80;;;;;;;18.10;42.85;100983.13;5066789;28;20052;-35
2023/04/15 01:39:12;;;;;;;3.13;1.85;;;;;;;18.08;42.73;100974.38;5063001;28;20045;-35
2023/04/15 01:41:39;;;;;;;3.25;1.80;;;;;;;18.08;42.90;100975.22;5065575;28;20056;-35
2023/04/15 01:44:06;;;;;;;3.63;1.73;;;;;;;18.07;42.78;100973.53;5061134;28;20060;-36
2023/04/15 01:46:35;;;;;;;2.35;1.50;;;;;;;18.05;43.00;100970.16;5062300;28;20450;-37
2023/04/15 01:49:01;;;;;;;2.67;1.50;;;;;;;18.04;42.87;100979.19;5060753;28;20045;-36
2023/04/15 01:51:28;;;;;;;2.63;1.63;;;;;;;18.04;42.84;100978.34;5062403;28;20052;-36
2023/04/15 01:53:57;;;;;;;2.38;1.52;;;;;;;18.03;42.78;100987.41;5062769;28;20041;-35
2023/04/15 01:56:24;;;;;;;2.97;1.73;;;;;;;18.02;42.93;100985.72;5059608;28;20083;-35
2023/04/15 01:58:51;;;;;;;2.60;1.38;;;;;;;18.00;42.75;100993.88;5061133;28;20052;-34
2023/04/15 02:01:21;;;;;;;2.33;1.25;;;;;;;18.00;42.93;100993.88;5061905;28;20052;-35
2023/04/15 02:03:47;;;;;;;2.38;1.40;;;;;;;17.98;43.24;100991.38;5060642;28;20338;-35
2023/04/15 02:06:14;;;;;;;2.67;1.58;;;;;;;17.98;42.97;100988.69;5065413;28;20424;-36
2023/04/15 02:08:41;;;;;;;2.97;1.60;;;;;;;17.97;42.76;100997.75;5061189;28;20093;-35
2023/04/15 02:11:08;;;;;;;2.90;1.40;;;;;;;17.97;42.96;101003.09;5064519;28;20052;-35
2023/04/15 02:13:35;;;;;;;3.95;1.80;;;;;;;17.96;43.01;100997.88;5067257;28;20045;-35
2023/04/15 02:16:02;;;;;;;4.80;1.67;;;;;;;17.96;42.82;101003.22;5064431;28;20048;-35
2023/04/15 02:18:29;;;;;;;1.65;1.38;;;;;;;17.93;42.79;100999.03;5068175;28;20097;-35
2023/04/15 02:20:57;;;;;;;3.15;1.70;;;;;;;17.93;42.90;101000.84;5068984;28;20044;-37
2023/04/15 02:23:24;;;;;;;2.30;1.88;;;;;;;17.92;42.98;100996.47;5068081;28;20402;-35
2023/04/15 02:25:51;;;;;;;2.38;1.80;;;;;;;17.91;42.82;101000.16;5071677;28;20061;-34
2023/04/15 02:28:20;;;;;;;3.47;1.65;;;;;;;17.89;42.64;100996.75;5066814;28;20109;-34
2023/04/15 02:30:51;;;;;;;3.40;1.67;;;;;;;17.89;42.75;100999.44;5069537;28;20059;-34
2023/04/15 02:33:18;;;;;;;4.18;2.00;;;;;;;17.88;43.00;101005.81;5069955;28;20052;-34
2023/04/15 02:35:45;;;;;;;2.22;1.40;;;;;;;17.87;42.82;101004.97;5058329;28;20055;-35
2023/04/15 02:38:13;;;;;;;3.83;1.60;;;;;;;17.85;42.62;101015.03;5069486;28;20072;-34
2023/04/15 02:40:39;;;;;;;1.63;1.35;;;;;;;17.85;42.92;101023.06;5065958;28;20351;-34
2023/04/15 02:43:06;;;;;;;3.22;1.52;;;;;;;17.84;42.91;101026.72;5066091;28;20038;-34
2023/04/15 02:45:32;;;;;;;2.45;1.42;;;;;;;17.83;43.07;101025.03;5065151;28;20045;-35
2023/04/15 02:48:04;;;;;;;3.38;1.70;;;;;;;17.81;42.82;101024.34;5068060;28;20048;-34
2023/04/15 02:50:31;;;;;;;2.55;1.75;;;;;;;17.81;43.16;101034.19;5062052;28;20412;-34
2023/04/15 02:52:59;;;;;;;3.20;1.75;;;;;;;17.81;43.00;101034.19;5066135;28;20715;-34
2023/04/15 02:55:27;;;;;;;2.80;1.60;;;;;;;17.79;43.35;101037.03;5065964;28;20333;-35
2023/04/15 02:57:54;;;;;;;1.73;1.17;;;;;;;17.78;42.56;101039.88;5062690;28;20776;-34
2023/04/15 03:00:21;;;;;;;2.97;1.67;;;;;;;17.78;42.92;101038.03;5065385;28;20473;-35
2023/04/15 03:02:50;;;;;;;3.90;1.50;;;;;;;17.77;43.02;101041.72;5063350;28;20041;-35
2023/04/15 03:05:18;;;;;;;2.88;1.42;;;;;;;17.76;43.15;101042.69;5066699;28;20067;-34
2023/04/15 03:07:44;;;;;;;1.90;1.40;;;;;;;17.74;42.67;101039.28;5063076;28;20056;-35
2023/04/15 03:10:11;;;;;;;2.88;1.45;;;;;;;17.74;42.94;101039.28;5067983;28;20045;-34
2023/04/15 03:12:38;;;;;;;2.55;1.75;;;;;;;17.72;42.95;101044.78;5062749;28;20052;-34
2023/04/15 03:15:05;;;;;;;1.90;1.40;;;;;;;17.72;42.79;101041.25;5064007;28;20052;-35
2023/04/15 03:17:32;;;;;;;2.30;1.40;;;;;;;17.70;43.11;101040.59;5064864;28;20373;-35
2023/04/15 03:20:00;;;;;;;2.45;1.60;;;;;;;17.69;42.94;101047.78;5069435;28;20040;-35
2023/04/15 03:22:26;;;;;;;3.22;1.80;;;;;;;17.68;43.03;101048.75;5065342;28;20057;-35
2023/04/15 03:24:53;;;;;;;2.28;1.40;;;;;;;17.68;43.03;101053.28;5061887;28;20440;-35
2023/04/15 03:27:19;;;;;;;1.90;1.17;;;;;;;17.67;43.13;101048.91;5062607;28;20049;-35
2023/04/15 03:29:46;;;;;;;2.47;1.77;;;;;;;17.67;42.97;101056.94;5061002;28;20485;-35
2023/04/15 03:32:14;;;;;;;1.95;1.63;;;;;;;17.63;43.15;101050.19;5062753;28;20048;-34
2023/04/15 03:34:41;;;;;;;2.30;1.40;;;;;;;17.63;43.21;101055.56;5065161;28;20261;-35
2023/04/15 03:37:07;;;;;;;4.03;1.65;;;;;;;17.69;42.88;101063.88;5069085;28;20051;-35
2023/04/15 03:39:34;;;;;;;2.55;1.45;;;;;;;17.78;42.94;101059.50;5070765;28;20051;-35
2023/04/15 03:42:02;;;;;;;2.47;1.20;;;;;;;17.87;42.97;101065.81;5064453;28;20052;-34
2023/04/15 03:44:29;;;;;;;2.38;1.40;;;;;;;17.96;43.12;101068.44;5066388;28;20059;-35
2023/04/15 03:46:55;;;;;;;3.00;1.70;;;;;;;18.02;42.83;101067.03;5063874;28;20052;-34
2023/04/15 03:49:23;;;;;;;2.08;1.40;;;;;;;18.08;42.43;101065.56;5061781;28;20152;-35
2023/04/15 03:51:50;;;;;;;1.70;1.48;;;;;;;18.13;42.40;101074.00;5063901;28;20134;-35
2023/04/15 03:54:16;;;;;;;2.88;1.25;;;;;;;18.16;42.45;101077.25;5064123;28;20044;-35
2023/04/15 03:56:43;;;;;;;4.47;1.65;;;;;;;18.19;42.43;101082.31;5061665;28;20056;-35
2023/04/15 03:59:10;;;;;;;2.03;1.40;;;;;;;18.21;41.95;101085.72;5065396;28;20443;-35
2023/04/15 04:01:36;;;;;;;2.30;1.60;;;;;;;18.24;42.28;101087.22;5062290;28;20049;-35
2023/04/15 04:04:03;;;;;;;2.47;1.42;;;;;;;18.25;42.27;101089.78;5065243;28;20076;-35
2023/04/15 04:06:30;;;;;;;1.67;1.38;;;;;;;18.27;42.19;101086.94;5064423;28;20048;-35
2023/04/15 04:08:56;;;;;;;3.20;1.45;;;;;;;18.28;42.16;101091.31;5064514;28;20044;-35
2023/04/15 04:11:23;;;;;;;1.85;1.10;;;;;;;18.30;42.10;101092.00;5061769;28;20436;-35
2023/04/15 04:13:50;;;;;;;2.42;1.38;;;;;;;18.32;41.76;101094.53;5065722;28;20128;-34
2023/04/15 04:16:16;;;;;;;1.95;1.52;;;;;;;18.31;41.83;101093.69;5061678;28;20436;-35
2023/04/15 04:18:43;;;;;;;2.42;1.50;;;;;;;18.33;41.63;101101.59;5070592;28;20412;-34
2023/04/15 04:21:10;;;;;;;1.95;1.50;;;;;;;18.34;41.96;101098.78;5062493;28;20056;-37
2023/04/15 04:23:37;;;;;;;2.05;1.38;;;;;;;18.34;41.84;101106.81;5067939;28;20045;-34
2023/04/15 04:26:03;;;;;;;2.63;1.48;;;;;;;18.34;41.74;101104.13;5062332;28;20455;-37
2023/04/15 04:28:30;;;;;;;2.40;1.45;;;;;;;18.34;41.55;101111.34;5064181;28;20056;-34
2023/04/15 04:30:56;;;;;;;1.52;1.30;;;;;;;18.32;41.86;101102.59;5061428;28;20048;-34
2023/04/15 04:33:23;;;;;;;1.95;1.13;;;;;;;18.29;41.89;101105.56;5065271;28;20045;-35
2023/04/15 04:35:50;;;;;;;1.65;1.35;;;;;;;18.25;41.93;101110.38;5062565;28;20061;-34
2023/04/15 04:38:16;;;;;;;2.03;1.48;;;;;;;18.21;42.22;101123.28;5063582;28;20058;-35
2023/04/15 04:40:43;;;;;;;2.65;1.50;;;;;;;18.16;42.00;101122.00;5059216;28;20048;-35
2023/04/15 04:43:10;;;;;;;2.67;1.33;;;;;;;18.09;42.23;101124.44;5063500;28;20056;-35
2023/04/15 04:45:36;;;;;;;2.30;1.60;;;;;;;18.07;42.25;101134.47;5059848;28;20043;-35
2023/04/15 04:48:05;;;;;;;2.42;1.30;;;;;;;18.10;42.32;101134.19;5065509;28;20049;-35
2023/04/15 04:50:33;;;;;;;2.13;1.25;;;;;;;18.13;42.37;101139.25;5062032;28;20048;-35
2023/04/15 04:53:00;;;;;;;2.53;1.23;;;;;;;18.18;42.17;101142.34;5064001;28;20055;-36
2023/04/15 04:55:27;;;;;;;2.25;1.20;;;;;;;18.22;42.14;101146.41;5064133;28;20359;-34
2023/04/15 04:57:53;;;;;;;2.75;1.60;;;;;;;18.31;42.35;101154.56;5059380;28;20299;-36
2023/04/15 05:00:20;;;;;;;2.45;1.20;;;;;;;18.34;41.88;101154.28;5063035;28;20044;-35
2023/04/15 05:02:47;;;;;;;2.55;1.27;;;;;;;18.40;41.71;101167.09;5064003;28;20049;-34
2023/04/15 05:05:14;;;;;;;1.85;1.13;;;;;;;18.42;41.75;101162.44;5067901;28;20052;-35
2023/04/15 05:07:41;;;;;;;3.78;1.70;;;;;;;18.44;41.62;101163.97;5068429;28;20053;-34
2023/04/15 05:10:08;;;;;;;1.73;1.17;;;;;;;18.46;42.05;101172.72;5067821;28;20131;-37
2023/04/15 05:12:36;;;;;;;1.90;1.33;;;;;;;18.48;41.67;101172.56;5065472;28;20054;-35
2023/04/15 05:15:03;;;;;;;1.45;1.10;;;;;;;18.48;41.64;101176.09;5065847;28;20044;-35
2023/04/15 05:17:30;;;;;;;2.13;1.23;;;;;;;18.50;42.23;101189.38;5064132;28;20500;-37
2023/04/15 05:19:57;;;;;;;2.95;1.30;;;;;;;18.50;42.18;101184.84;5067793;28;20048;-35
2023/04/15 05:22:24;;;;;;;5.43;1.80;;;;;;;18.51;41.79;101196.44;5065216;28;20060;-35
2023/04/15 05:24:50;;;;;;;2.35;1.10;;;;;;;18.52;41.66;101197.28;5058475;28;20049;-36
2023/04/15 05:27:18;;;;;;;3.50;2.20;;;;;;;18.53;41.54;101199.78;5063464;28;20440;-36
2023/04/15 05:29:44;;;;;;;2.70;1.40;;;;;;;18.56;41.87;101209.41;5065902;28;20122;-35
2023/04/15 05:32:11;;;;;;;2.65;1.40;;;;;;;18.56;41.51;101217.47;5064904;28;20060;-36
2023/04/15 05:34:37;;;;;;;1.65;1.30;;;;;;;18.55;42.09;101211.25;5066611;28;20340;-35
2023/04/15 05:37:04;;;;;;;2.25;1.60;;;;;;;18.54;42.14;101206.88;5062433;28;20048;-37
2023/04/15 05:39:31;;;;;;;2.03;1.40;;;;;;;18.54;42.27;101214.09;5063045;28;20084;-35
2023/04/15 05:41:58;;;;;;;1.77;1.10;;;;;;;18.55;41.96;101227.34;5058176;28;20110;-36
2023/04/15 05:44:25;;;;;;;2.13;1.48;;;;;;;18.57;41.98;101225.34;5062220;28;20055;-35
2023/04/15 05:46:52;;;;;;;1.95;1.33;;;;;;;18.58;41.98;101228.91;5061943;28;20058;-35
2023/04/15 05:49:18;;;;;;;1.90;1.20;;;;;;;18.60;42.04;101240.31;5064479;28;20063;-35
2023/04/15 05:51:46;;;;;;;3.05;1.45;;;;;;;18.59;42.25;101247.53;5061883;28;20064;-36
2023/04/15 05:54:13;;;;;;;2.47;1.25;;;;;;;18.60;42.40;101253.75;5065566;28;20041;-36
2023/04/15 05:56:40;;;;;;;2.05;1.35;;;;;;;18.62;42.12;101260.69;5065199;28;20106;-35
2023/04/15 05:59:06;;;;;;;2.58;1.45;;;;;;;18.64;42.10;101256.00;5064762;28;20052;-36
2023/04/15 06:01:33;;;;;;;2.53;1.48;;;;;;;18.67;41.52;101261.06;5063222;28;20136;-35
2023/04/15 06:04:00;;;;;;;2.13;1.52;;;;;;;18.66;41.81;101262.06;5068013;28;20071;-36
2023/04/15 06:06:27;;;;;;;2.03;1.35;;;;;;;18.66;41.95;101270.13;5066522;28;20083;-36
2023/04/15 06:08:54;;;;;;;2.15;1.25;;;;;;;18.69;41.93;101277.03;5070600;28;20037;-37
2023/04/15 06:11:21;;;;;;;2.17;1.30;;;;;;;18.69;42.00;101285.06;5066137;28;20053;-36
2023/04/15 06:13:48;;;;;;;1.65;1.45;;;;;;;18.67;42.42;101281.72;5067651;28;20356;-37
2023/04/15 06:16:14;;;;;;;2.00;1.48;;;;;;;18.67;41.95;101290.59;5066296;28;20048;-39
2023/04/15 06:18:41;;;;;;;1.13;1.00;;;;;;;18.71;42.51;101294.72;5064250;28;20076;-35
2023/04/15 06:21:07;;;;;;;3.67;1.88;;;;;;;18.74;42.32;101299.81;5068194;28;20056;-35
2023/04/15 06:23:40;;;;;;;2.35;1.60;;;;;;;18.78;42.57;101299.53;5069925;28;20048;-35
2023/04/15 06:26:06;;;;;;;2.75;1.60;;;;;;;18.80;42.53;101314.47;5068106;28;20123;-35
2023/04/15 06:28:33;;;;;;;2.25;1.63;;;;;;;18.83;42.35;101307.97;5064853;28;20442;-35
2023/04/15 06:31:00;;;;;;;1.75;1.58;;;;;;;18.86;42.18;101307.69;5062008;28;20531;-35
2023/04/15 06:33:27;;;;;;;4.90;1.60;;;;;;;18.88;42.48;101317.25;5066627;28;20045;-38
2023/04/15 06:35:54;;;;;;;2.65;1.67;;;;;;;18.90;42.65;101317.97;5062520;28;20058;-38
2023/04/15 06:38:20;;;;;;;1.85;1.50;;;;;;;18.94;42.06;101321.22;5065492;28;20443;-35
2023/04/15 06:40:47;;;;;;;3.95;2.00;;;;;;;18.95;42.01;101325.59;5064590;28;20206;-38
2023/04/15 06:43:14;;;;;;;5.63;2.92;;;;;;;18.98;42.32;101328.81;5064440;28;20322;-36
2023/04/15 06:45:40;;;;;;;5.32;3.53;;;;;;;18.98;42.65;101334.19;5065612;28;20220;-35
2023/04/15 06:48:07;;;;;;;6.32;3.17;;;;;;;19.01;42.68;101343.78;5061230;28;20051;-36
2023/04/15 06:50:34;;;;;;;5.22;3.70;;;;;;;19.03;42.29;101340.97;5066808;28;20052;-36
2023/04/15 06:53:01;;;;;;;7.60;4.40;;;;;;;19.04;42.73;101340.81;5065341;28;20098;-35
2023/04/15 06:55:28;;;;;;;6.80;4.35;;;;;;;19.05;42.57;101349.72;5066973;28;20378;-36
2023/04/15 06:57:55;;;;;;;5.70;3.78;;;;;;;19.07;41.66;101351.28;5065761;28;20076;-36
2023/04/15 07:00:21;;;;;;;5.72;3.70;;;;;;;19.07;42.11;101359.34;5066913;28;20049;-36
2023/04/15 07:02:48;;;;;;;6.90;4.28;;;;;;;19.09;42.19;101364.53;5066053;28;20285;-36
2023/04/15 07:05:15;;;;;;;7.88;4.97;;;;;;;19.09;41.91;101356.47;5068079;28;20103;-36
2023/04/15 07:07:42;;;;;;;10.02;5.38;;;;;;;19.10;42.44;101368.94;5064236;28;20139;-35
2023/04/15 07:10:08;;;;;;;9.38;5.40;;;;;;;19.11;42.27;101371.47;5063530;28;20048;-36
2023/04/15 07:12:35;;;;;;;7.53;4.47;;;;;;;19.11;42.27;101371.47;5064204;28;20049;-36
2023/04/15 07:15:02;;;;;;;7.47;4.88;;;;;;;19.11;41.68;101374.16;5065084;28;20045;-35
2023/04/15 07:17:29;;;;;;;5.90;4.20;;;;;;;19.13;41.39;101379.38;5062670;28;20053;-36
2023/04/15 07:19:55;;;;;;;5.88;3.67;;;;;;;19.12;41.41;101386.59;5063241;28;20167;-36
2023/04/15 07:22:22;;;;;;;8.82;4.55;;;;;;;19.12;41.63;101383.91;5064246;28;20050;-37
2023/04/15 07:24:49;;;;;;;8.27;4.32;;;;;;;19.11;41.43;101390.28;5066037;28;20125;-35
2023/04/15 07:27:16;;;;;;;7.63;4.53;;;;;;;19.11;41.94;101406.41;5061128;28;20049;-36
2023/04/15 07:29:43;;;;;;;6.93;4.47;;;;;;;19.11;42.05;101392.97;5063690;28;20118;-35
2023/04/15 07:32:10;;;;;;;8.10;5.32;;;;;;;19.13;42.01;101408.94;5064215;28;20044;-35
2023/04/15 07:34:36;;;;;;;8.98;5.25;;;;;;;19.12;41.68;101410.78;5063525;28;20060;-36
2023/04/15 07:37:03;;;;;;;9.93;4.95;;;;;;;19.12;41.63;101416.16;5064785;28;20045;-35
2023/04/15 07:39:30;;;;;;;8.88;4.75;;;;;;;19.11;41.69;101413.63;5068170;28;20074;-35
2023/04/15 07:41:57;;;;;;;8.10;4.60;;;;;;;19.10;41.45;101415.47;5060955;28;20056;-36
2023/04/15 07:44:25;;;;;;;9.07;4.80;;;;;;;19.08;41.94;101420.13;5062581;28;20052;-35
2023/04/15 07:46:52;;;;;;;7.95;4.55;;;;;;;19.06;41.91;101422.13;5063079;28;20049;-36
2023/04/15 07:49:20;;;;;;;8.13;4.78;;;;;;;19.03;42.25;101432.31;5063828;28;20056;-35
2023/04/15 07:51:47;;;;;;;7.65;4.68;;;;;;;19.01;42.02;101436.97;5064870;28;20052;-35
2023/04/15 07:54:14;;;;;;;7.13;4.63;;;;;;;19.00;41.95;101438.81;5069361;28;20082;-36
2023/04/15 07:56:41;;;;;;;6.45;3.88;;;;;;;19.01;42.04;101435.13;5061578;28;20053;-35
2023/04/15 07:59:08;;;;;;;7.95;4.78;;;;;;;19.00;42.23;101441.50;5068051;28;20048;-35
2023/04/15 08:01:35;;;;;;;8.70;4.78;;;;;;;19.02;41.89;101452.97;5068261;28;20140;-36
2023/04/15 08:04:02;;;;;;;7.97;4.45;;;;;;;18.99;41.85;101451.41;5072140;28;20062;-36
2023/04/15 08:06:29;;;;;;;10.52;5.47;;;;;;;19.02;42.18;101461.03;5065110;28;20483;-36
2023/04/15 08:08:56;;;;;;;11.50;6.15;;;;;;;19.02;41.70;101465.56;5068163;28;20078;-37
2023/04/15 08:11:23;;;;;;;9.75;5.32;;;;;;;19.03;42.28;101470.78;5066225;28;20049;-36
2023/04/15 08:13:51;;;;;;;11.73;4.85;;;;;;;19.04;42.13;101469.78;5065093;28;20068;-35
2023/04/15 08:16:22;;;;;;;12.77;6.68;;;;;;;19.05;42.47;101476.81;5064104;28;20448;-36
2023/04/15 08:18:50;;;;;;;13.27;6.70;;;;;;;19.07;42.15;101480.22;5065185;28;20048;-36
2023/04/15 08:21:19;;;;;;;11.48;5.97;;;;;;;19.08;42.32;101476.53;5063625;28;20057;-36
2023/04/15 08:23:48;;;;;;;12.02;6.25;;;;;;;19.11;42.12;101481.63;5061703;28;20052;-36
2023/04/15 08:26:15;;;;;;;11.68;7.15;;;;;;;19.12;42.45;101480.63;5062554;28;20091;-36
2023/04/15 08:28:44;;;;;;;14.85;7.50;;;;;;;19.15;42.36;101492.94;5062453;28;20087;-35
2023/04/15 08:31:12;;;;;;;13.82;6.78;;;;;;;19.16;42.51;101486.56;5062924;28;20060;-35
2023/04/15 08:33:39;;;;;;;15.30;7.40;;;;;;;19.18;42.32;101488.13;5059333;28;20060;-35
2023/04/15 08:36:06;;;;;;;14.52;7.53;;;;;;;19.21;42.46;101495.88;5064038;28;20044;-36
2023/04/15 08:38:33;;;;;;;16.73;8.05;;;;;;;19.22;42.77;101497.59;5058999;28;20057;-35
2023/04/15 08:41:06;;;;;;;18.02;8.75;;;;;;;19.25;42.47;101501.81;5063674;28;20470;-35
2023/04/15 08:43:34;;;;;;;18.35;8.63;;;;;;;19.28;42.59;101506.06;5060165;28;20052;-36
2023/04/15 08:46:03;;;;;;;22.23;10.50;;;;;;;19.29;42.58;101503.22;5065192;28;20051;-35
2023/04/15 08:48:34;;;;;;;18.60;10.25;;;;;;;19.32;43.43;101507.47;5060454;28;20052;-35
2023/04/15 08:51:01;;;;;;;24.35;11.45;;;;;;;19.34;42.99;101511.72;5065980;28;20056;-35
2023/04/15 08:53:29;;;;;;;23.63;11.95;;;;;;;19.36;43.07;101514.25;5061075;28;20113;-35
2023/04/15 08:56:01;;;;;;;21.45;11.65;;;;;;;19.37;43.57;101516.78;5061829;28;20100;-35
2023/04/15 08:58:28;;;;;;;25.88;11.60;;;;;;;19.40;43.24;101521.03;5062825;28;20067;-35
2023/04/15 09:00:56;;;;;;;24.17;11.88;;;;;;;19.43;43.19;101526.13;5068080;28;20049;-36
2023/04/15 09:03:23;;;;;;;27.45;12.32;;;;;;;19.45;43.41;101530.34;5064314;28;20056;-36
2023/04/15 09:05:50;;;;;;;20.00;10.93;;;;;;;19.48;43.03;101535.44;5065066;28;20440;-36
2023/04/15 09:08:18;;;;;;;20.67;10.60;;;;;;;19.50;43.32;101538.00;5060117;28;20053;-36
2023/04/15 09:10:45;;;;;;;22.13;11.27;;;;;;;19.54;43.49;101542.06;5066360;28;20040;-36
2023/04/15 09:13:12;;;;;;;21.98;10.77;;;;;;;19.56;43.02;101536.53;5059005;28;20068;-36
2023/04/15 09:15:39;;;;;;;17.13;10.27;;;;;;;19.59;43.52;101536.25;5062422;28;20194;-35
2023/04/15 09:18:06;;;;;;;17.75;10.23;;;;;;;19.61;43.24;101550.38;5063553;28;20406;-36
2023/04/15 09:20:39;;;;;;;19.02;10.68;;;;;;;19.65;43.16;101557.19;5065477;28;20073;-37
2023/04/15 09:23:12;;;;;;;;;;;;;;;19.68;43.13;101562.28;5064363;28;20044;-35
2023/04/15 09:25:43;;;;;;;19.33;10.27;;;;;;;19.73;43.22;101563.53;5061084;28;19939;-35
2023/04/15 09:28:10;;;;;;;19.60;10.90;;;;;;;19.76;43.12;101569.63;5059996;28;20052;-36
2023/04/15 09:30:36;;;;;;;18.55;10.45;;;;;;;19.78;43.24;101581.06;5064022;28;20052;-35
2023/04/15 09:33:07;;;;;;;22.58;11.18;;;;;;;19.81;43.41;101570.88;5060422;28;20105;-39
2023/04/15 09:35:35;;;;;;;22.48;10.60;;;;;;;19.85;42.78;101571.44;5065336;28;20041;-36
2023/04/15 09:38:04;;;;;;;20.10;11.38;;;;;;;19.89;42.71;101578.19;5064461;28;20059;-36
2023/04/15 09:40:40;;;;;;;22.73;11.73;;;;;;;19.93;42.98;101579.59;5063627;28;20049;-36
2023/04/15 09:43:09;;;;;;;21.08;11.43;;;;;;;19.99;43.33;101587.09;5058416;28;20399;-36
2023/04/15 09:45:36;;;;;;;21.58;11.63;;;;;;;20.02;43.03;101594.00;5063091;28;20051;-36
2023/04/15 09:48:25;;;;;;;21.63;11.38;;;;;;;20.07;43.95;101594.44;5065998;28;20140;-36
2023/04/15 09:50:56;;;;;;;22.17;11.55;;;;;;;20.11;43.09;101591.28;5067225;28;20068;-37
2023/04/15 09:53:24;;;;;;;22.65;11.63;;;;;;;20.16;43.04;101588.97;5063610;28;20063;-37
2023/04/15 09:55:56;;;;;;;20.17;11.95;;;;;;;20.21;43.31;101596.59;5063066;28;20049;-36
2023/04/15 09:58:25;;;;;;;22.88;12.25;;;;;;;20.26;43.35;101606.91;5060261;28;20151;-36
2023/04/15 10:00:53;;;;;;;24.70;11.70;;;;;;;20.30;43.48;101606.50;5061769;28;20340;-36
2023/04/15 10:03:28;;;;;;;20.33;12.00;;;;;;;20.35;43.60;101611.44;5061906;28;20057;-36
2023/04/15 10:05:56;;;;;;;21.45;11.68;;;;;;;20.39;43.20;101610.13;5063076;28;20037;-36
2023/04/15 10:08:29;;;;;;;19.70;10.73;;;;;;;20.43;43.07;101611.53;5063482;28;20056;-36
2023/04/15 10:10:56;;;;;;;18.88;11.13;;;;;;;20.46;43.29;101609.38;5060810;28;20055;-36
2023/04/15 10:13:25;;;;;;;19.63;11.05;;;;;;;20.49;43.61;101610.94;5059148;28;20427;-36
2023/04/15 10:15:58;;;;;;;20.95;11.23;;;;;;;20.52;43.28;101616.03;5062192;28;20040;-36
2023/04/15 10:18:26;;;;;;;17.65;10.52;;;;;;;20.55;43.22;101621.13;5058715;28;20062;-36
2023/04/15 10:20:54;;;;;;;20.42;11.40;;;;;;;20.58;42.86;101620.81;5062231;28;20051;-35
2023/04/15 10:23:22;;;;;;;22.27;10.90;;;;;;;20.60;43.16;101629.59;5062458;28;20052;-35
2023/04/15 10:25:51;;;;;;;18.90;11.02;;;;;;;20.63;42.86;101628.44;5059625;28;20263;-36
2023/04/15 10:28:19;;;;;;;18.40;11.02;;;;;;;20.64;43.01;101625.59;5057499;28;20049;-35
2023/04/15 10:30:46;;;;;;;16.90;10.10;;;;;;;20.65;42.92;101632.66;5060922;28;20045;-36
2023/04/15 10:33:15;;;;;;;19.80;10.23;;;;;;;20.67;42.89;101635.22;5060965;28;20044;-37
2023/04/15 10:35:42;;;;;;;19.20;10.55;;;;;;;20.68;42.95;101637.75;5064156;28;20343;-36
2023/04/15 10:38:45;;;;;;;18.95;10.48;;;;;;;20.69;43.23;101638.59;5062017;28;20316;-36
2023/04/15 10:41:20;;;;;;;17.63;10.00;;;;;;;20.73;43.19;101636.44;5052489;28;20045;-36
2023/04/15 10:44:03;;;;;;;16.88;10.02;;;;;;;20.75;42.93;101647.94;5062172;28;20053;-35
2023/04/15 10:46:42;;;;;;;18.02;9.85;;;;;;;20.78;42.82;101636.84;5065818;28;20098;-35
2023/04/15 10:49:15;;;;;;;17.45;10.55;;;;;;;20.80;43.27;101646.47;5075347;28;20052;-36
2023/04/15 10:51:57;;;;;;;16.10;9.32;;;;;;;20.83;42.82;101645.31;5070618;28;20052;-36
2023/04/15 10:54:24;;;;;;;17.20;10.27;;;;;;;20.87;42.53;101654.81;5074022;28;20056;-36
2023/04/15 10:57:01;;;;;;;15.23;8.90;;;;;;;20.90;43.25;101649.97;5065806;28;20054;-36
2023/04/15 10:59:32;;;;;;;14.80;8.98;;;;;;;20.94;42.89;101651.34;5068341;28;20064;-38
2023/04/15 11:02:06;;;;;;;17.50;9.38;;;;;;;20.97;43.00;101658.25;5065443;28;20056;-36
2023/04/15 11:04:52;;;;;;;15.18;8.82;;;;;;;21.01;43.15;101658.81;5061525;28;20071;-35
2023/04/15 11:07:43;;;;;;;16.27;9.60;;;;;;;21.04;43.39;101664.72;5071669;28;20143;-35
2023/04/15 11:10:12;;;;;;;15.48;9.43;;;;;;;21.07;43.04;101660.91;5064865;28;20139;-36
2023/04/15 11:12:40;;;;;;;14.98;8.77;;;;;;;21.10;42.44;101669.50;5064829;28;20157;-37
2023/04/15 11:15:26;;;;;;;15.43;9.07;;;;;;;21.10;43.03;101668.66;5059502;28;20139;-36
2023/04/15 11:17:52;;;;;;;16.52;8.65;;;;;;;21.15;42.74;101669.91;5064823;28;20048;-36
2023/04/15 11:20:19;;;;;;;16.08;8.32;;;;;;;21.15;42.62;101675.28;5063793;28;20641;-36
2023/04/15 11:22:53;;;;;;;16.38;9.07;;;;;;;21.18;43.06;101679.50;5063950;28;20466;-36
2023/04/15 11:25:40;;;;;;;14.18;8.38;;;;;;;21.21;42.43;101679.22;5061251;28;20111;-38